Time;durP1;ratioP1;P1;durP2;ratioP2;P2;SDS_P1;SDS_P2;PMS_P1;PMS_P2;Temp;Humidity;BMP_temperature;BMP_pressure;BME280_temperature;BME280_humidity;BME280_pressure;Samples;Min_cycle;Max_cycle;Signal;HPM_P1;HPM_P2
2023/12/12 00:01:30;;;;;;;17.00;8.80;;;;;;;11.35;77.51;99879.09;5050414;28;20037;-82
2023/12/12 00:03:56;;;;;;;15.57;8.27;;;;;;;11.33;77.20;99875.59;5050413;28;20075;-81
2023/12/12 00:06:21;;;;;;;15.30;9.03;;;;;;;11.31;77.27;99874.75;5050540;28;20025;-80
2023/12/12 00:08:47;;;;;;;19.02;9.15;;;;;;;11.28;76.96;99867.75;5050400;28;20033;-80
2023/12/12 00:11:12;;;;;;;16.13;8.73;;;;;;;11.24;77.53;99871.31;5050737;28;20458;-79
2023/12/12 00:13:38;;;;;;;14.50;8.20;;;;;;;11.22;77.39;99878.38;5050281;28;20568;-79
2023/12/12 00:16:06;;;;;;;14.73;8.73;;;;;;;11.19;77.08;99876.66;5049500;28;20025;-80
2023/12/12 00:18:34;;;;;;;16.27;8.38;;;;;;;11.19;77.04;99881.06;5050135;28;20033;-80
2023/12/12 00:21:00;;;;;;;21.15;10.65;;;;;;;11.16;76.76;99871.41;5048885;28;20041;-80
2023/12/12 00:23:25;;;;;;;18.67;9.52;;;;;;;11.10;77.16;99860.97;5050241;28;20390;-79
2023/12/12 00:25:50;;;;;;;18.67;9.17;;;;;;;11.06;76.97;99859.28;5049069;28;20052;-79
2023/12/12 00:28:16;;;;;;;17.00;8.77;;;;;;;11.00;76.75;99840.91;5050273;28;20112;-82
2023/12/12 00:30:41;;;;;;;17.27;8.93;;;;;;;10.94;77.27;99833.06;5050006;28;20032;-79
2023/12/12 00:33:07;;;;;;;14.57;8.73;;;;;;;10.90;77.09;99826.97;5049976;28;20017;-80
2023/12/12 00:35:32;;;;;;;15.90;8.25;;;;;;;10.90;77.46;99835.75;5049665;28;20389;-79
2023/12/12 00:37:58;;;;;;;14.20;7.80;;;;;;;10.88;77.18;99836.66;5049764;28;20037;-78
2023/12/12 00:40:23;;;;;;;14.80;8.20;;;;;;;10.86;77.32;99833.19;5049575;28;20493;-80
2023/12/12 00:42:48;;;;;;;15.90;8.40;;;;;;;10.84;76.99;99829.66;5049914;28;20070;-81
2023/12/12 00:45:14;;;;;;;16.67;8.30;;;;;;;10.84;76.77;99832.31;5049907;28;20025;-81
2023/12/12 00:47:40;;;;;;;18.97;8.43;;;;;;;10.80;76.87;99825.34;5049862;28;20045;-82
2023/12/12 00:50:06;;;;;;;18.47;8.63;;;;;;;10.77;76.94;99823.63;5049885;28;20044;-80
2023/12/12 00:52:31;;;;;;;19.33;8.52;;;;;;;10.76;77.03;99824.53;5048451;28;20031;-83
2023/12/12 00:55:00;;;;;;;17.50;8.90;;;;;;;10.74;76.81;99815.75;5050095;28;20108;-80
2023/12/12 00:57:26;;;;;;;22.43;10.60;;;;;;;10.74;76.77;99813.13;5049381;28;20278;-82
2023/12/12 00:59:52;;;;;;;29.55;12.50;;;;;;;10.72;76.92;99801.72;5049718;28;20447;-82
2023/12/12 01:02:22;;;;;;;20.67;8.88;;;;;;;10.70;76.64;99788.59;5049662;28;20037;-80
2023/12/12 01:04:47;;;;;;;16.40;8.23;;;;;;;10.69;76.76;99778.94;5049841;28;20083;-81
2023/12/12 01:07:13;;;;;;;15.77;7.90;;;;;;;10.69;76.79;99791.22;5049566;28;20025;-82
2023/12/12 01:09:39;;;;;;;15.43;7.93;;;;;;;10.68;76.76;99790.38;5049463;28;20048;-82
2023/12/12 01:12:07;;;;;;;15.25;7.57;;;;;;;10.67;76.99;99791.25;5049717;28;20100;-80
2023/12/12 01:14:32;;;;;;;16.30;8.70;;;;;;;10.63;76.65;99784.28;5049254;28;20043;-80
2023/12/12 01:16:58;;;;;;;15.77;7.43;;;;;;;10.59;77.04;99772.03;5049333;28;20033;-82
2023/12/12 01:19:23;;;;;;;17.20;8.00;;;;;;;10.59;77.10;99766.75;5047922;28;20043;-80
2023/12/12 01:21:49;;;;;;;23.97;8.50;;;;;;;10.57;76.79;99764.16;5049463;28;20432;-83
2023/12/12 01:24:14;;;;;;;17.80;8.90;;;;;;;10.51;76.93;99773.91;5049248;28;20017;-80
2023/12/12 01:26:40;;;;;;;17.67;8.60;;;;;;;10.44;77.03;99770.44;5050483;28;20103;-80
2023/12/12 01:29:05;;;;;;;18.77;8.50;;;;;;;10.40;77.31;99756.47;5053490;28;20112;-80
2023/12/12 01:31:30;;;;;;;18.30;8.93;;;;;;;10.40;77.08;99753.84;5053507;28;20112;-81
2023/12/12 01:33:56;;;;;;;18.20;8.93;;;;;;;10.40;77.41;99745.94;5053177;28;20029;-79
2023/12/12 01:36:21;;;;;;;19.73;8.55;;;;;;;10.39;76.91;99754.69;5043997;28;20033;-80
2023/12/12 01:38:47;;;;;;;16.67;8.73;;;;;;;10.39;77.33;99754.69;5053239;28;20037;-80
2023/12/12 01:41:12;;;;;;;17.83;8.50;;;;;;;10.38;77.25;99742.44;5053416;28;20025;-79
2023/12/12 01:43:38;;;;;;;15.95;7.95;;;;;;;10.39;76.75;99754.69;5053059;28;20473;-83
2023/12/12 01:46:06;;;;;;;15.83;8.20;;;;;;;10.39;77.02;99757.34;5053295;28;20059;-82
2023/12/12 01:48:33;;;;;;;15.73;8.10;;;;;;;10.36;77.29;99749.44;5053053;28;20132;-79
2023/12/12 01:50:59;;;;;;;14.07;7.43;;;;;;;10.34;77.17;99748.59;5052998;28;20054;-82
2023/12/12 01:53:30;;;;;;;14.35;7.65;;;;;;;10.32;76.67;99751.25;5052941;28;20052;-80
2023/12/12 01:55:57;;;;;;;16.70;8.25;;;;;;;10.32;76.97;99753.91;5052777;28;20079;-83
2023/12/12 01:58:24;;;;;;;18.20;8.82;;;;;;;10.32;76.76;99753.00;5052587;28;20116;-82
2023/12/12 02:00:50;;;;;;;14.57;8.82;;;;;;;10.31;76.81;99760.06;5052856;28;20044;-80
2023/12/12 02:03:16;;;;;;;18.00;8.53;;;;;;;10.29;77.11;99759.19;5052786;28;20009;-79
2023/12/12 02:05:43;;;;;;;19.67;9.02;;;;;;;10.28;76.89;99767.97;5052713;28;20496;-81
2023/12/12 02:08:09;;;;;;;18.30;9.07;;;;;;;10.28;77.07;99762.72;5053108;28;20450;-79
2023/12/12 02:10:34;;;;;;;21.30;10.20;;;;;;;10.24;76.69;99755.72;5052869;28;20068;-80
2023/12/12 02:13:00;;;;;;;20.53;10.93;;;;;;;10.20;76.94;99748.75;5052626;28;20075;-81
2023/12/12 02:15:26;;;;;;;16.43;8.90;;;;;;;10.16;77.33;99762.84;5052462;28;20267;-82
2023/12/12 02:17:51;;;;;;;19.10;9.27;;;;;;;10.15;77.38;99755.84;5052454;28;20429;-80
2023/12/12 02:20:17;;;;;;;19.10;9.73;;;;;;;10.15;77.46;99750.56;5052328;28;20040;-82
2023/12/12 02:22:45;;;;;;;18.80;10.30;;;;;;;10.09;77.12;99740.13;5052465;28;20032;-83
2023/12/12 02:25:10;;;;;;;18.83;9.65;;;;;;;10.04;77.17;99748.03;5052095;28;20041;-82
2023/12/12 02:27:37;;;;;;;19.17;9.13;;;;;;;10.03;77.18;99751.56;5052356;28;20036;-80
2023/12/12 02:30:06;;;;;;;19.70;9.15;;;;;;;9.99;77.51;99745.44;5050969;28;20063;-82
2023/12/12 02:32:31;;;;;;;15.68;8.60;;;;;;;9.99;77.51;99753.34;5051912;28;20079;-81
2023/12/12 02:34:56;;;;;;;20.00;10.70;;;;;;;9.98;77.68;99754.22;5051869;28;20025;-80
2023/12/12 02:37:22;;;;;;;19.77;9.83;;;;;;;9.93;77.62;99735.00;5052431;28;20124;-79
2023/12/12 02:39:47;;;;;;;16.73;9.00;;;;;;;9.85;78.01;99736.84;5051488;28;20473;-81
2023/12/12 02:42:12;;;;;;;18.83;8.57;;;;;;;9.84;77.82;99751.75;5052140;28;20037;-82
2023/12/12 02:44:38;;;;;;;20.37;9.30;;;;;;;9.84;78.23;99756.16;5052509;28;20029;-80
2023/12/12 02:47:03;;;;;;;18.27;8.77;;;;;;;9.78;78.74;99730.78;5052187;28;20218;-80
2023/12/12 02:49:29;;;;;;;14.77;7.47;;;;;;;9.75;78.77;99720.28;5052081;28;20380;-80
2023/12/12 02:51:54;;;;;;;15.18;6.63;;;;;;;9.77;78.95;99722.03;5052028;28;20032;-80
2023/12/12 02:54:20;;;;;;;13.40;6.90;;;;;;;9.81;78.80;99736.00;5052004;28;20066;-81
2023/12/12 02:56:45;;;;;;;13.37;6.93;;;;;;;9.83;78.54;99728.09;5051871;28;20029;-82
2023/12/12 02:59:10;;;;;;;13.57;6.80;;;;;;;9.83;78.51;99707.91;5051508;28;20527;-81
2023/12/12 03:01:36;;;;;;;13.33;6.43;;;;;;;9.77;78.88;99708.88;5051792;28;20029;-81
2023/12/12 03:04:01;;;;;;;13.60;6.87;;;;;;;9.84;79.17;99719.31;5050399;28;20099;-80
2023/12/12 03:06:26;;;;;;;13.20;5.85;;;;;;;9.88;78.73;99716.63;5051890;28;20024;-80
2023/12/12 03:08:52;;;;;;;10.93;5.80;;;;;;;9.93;78.93;99708.69;5051706;28;20029;-80
2023/12/12 03:11:17;;;;;;;15.27;6.40;;;;;;;9.91;78.81;99711.38;5051712;28;20385;-81
2023/12/12 03:13:42;;;;;;;13.00;5.77;;;;;;;9.89;78.28;99725.41;5051326;28;20024;-79
2023/12/12 03:16:08;;;;;;;12.77;5.87;;;;;;;9.89;78.48;99717.50;5050147;28;20028;-81
2023/12/12 03:18:33;;;;;;;11.82;5.95;;;;;;;9.88;78.49;99705.25;5051243;28;20035;-80
2023/12/12 03:21:00;;;;;;;13.20;5.80;;;;;;;9.87;78.79;99709.63;5051471;28;20344;-83
2023/12/12 03:23:25;;;;;;;10.20;5.50;;;;;;;9.85;78.74;99705.28;5051391;28;20017;-83
2023/12/12 03:25:51;;;;;;;15.03;6.30;;;;;;;9.84;78.77;99698.28;5050929;28;20053;-80
2023/12/12 03:28:17;;;;;;;11.17;5.70;;;;;;;9.84;78.70;99698.28;5051079;28;20111;-82
2023/12/12 03:30:42;;;;;;;13.93;5.88;;;;;;;9.83;78.67;99699.19;5049857;28;20032;-79
2023/12/12 03:33:08;;;;;;;16.17;6.07;;;;;;;9.81;78.49;99695.69;5051164;28;20017;-79
2023/12/12 03:35:33;;;;;;;14.00;6.00;;;;;;;9.79;79.11;99694.84;5050874;28;20103;-79
2023/12/12 03:37:58;;;;;;;10.73;4.97;;;;;;;9.77;78.74;99693.09;5050899;28;20039;-79
2023/12/12 03:40:24;;;;;;;12.37;5.13;;;;;;;9.75;78.64;99689.59;5051244;28;20053;-81
2023/12/12 03:42:49;;;;;;;10.80;5.20;;;;;;;9.72;78.52;99697.50;5051123;28;20029;-79
2023/12/12 03:45:15;;;;;;;9.20;5.10;;;;;;;9.71;78.82;99698.41;5051222;28;20384;-79
2023/12/12 03:47:40;;;;;;;17.87;5.77;;;;;;;9.67;78.76;99704.56;5049699;28;20029;-79
2023/12/12 03:50:06;;;;;;;11.40;5.40;;;;;;;9.65;78.59;99698.47;5050084;28;20028;-79
2023/12/12 03:52:32;;;;;;;9.82;5.05;;;;;;;9.64;78.41;99691.47;5050960;28;20063;-80
2023/12/12 03:54:57;;;;;;;9.20;4.75;;;;;;;9.63;78.72;99694.97;5050775;28;20021;-78
2023/12/12 03:57:23;;;;;;;10.37;5.20;;;;;;;9.61;78.29;99696.75;5049447;28;20021;-79
2023/12/12 03:59:48;;;;;;;12.60;5.50;;;;;;;9.58;78.23;99696.78;5050459;28;20229;-79
2023/12/12 04:02:14;;;;;;;9.97;4.70;;;;;;;9.56;78.61;99693.31;5049054;28;20104;-81
2023/12/12 04:04:39;;;;;;;10.60;5.13;;;;;;;9.53;78.10;99702.06;5050714;28;20033;-79
2023/12/12 04:07:05;;;;;;;9.93;5.20;;;;;;;9.51;78.01;99714.38;5050689;28;20033;-80
2023/12/12 04:09:30;;;;;;;9.95;4.88;;;;;;;9.48;78.39;99707.38;5050292;28;20021;-79
2023/12/12 04:11:56;;;;;;;12.17;4.43;;;;;;;9.46;77.99;99703.03;5050392;28;20120;-80
2023/12/12 04:14:21;;;;;;;15.68;5.20;;;;;;;9.39;78.41;99702.19;5050309;28;20028;-81
2023/12/12 04:16:47;;;;;;;10.00;4.93;;;;;;;9.37;78.17;99714.47;5050131;28;20025;-80
2023/12/12 04:19:12;;;;;;;10.77;5.13;;;;;;;9.35;78.43;99711.00;5050159;28;20104;-79
2023/12/12 04:21:42;;;;;;;13.77;5.10;;;;;;;9.36;78.33;99715.38;5050241;28;20451;-81
2023/12/12 04:24:08;;;;;;;11.23;5.28;;;;;;;9.32;78.33;99718.91;5049805;28;20028;-81
2023/12/12 04:26:33;;;;;;;9.10;4.97;;;;;;;9.30;78.17;99712.78;5050049;28;20405;-81
2023/12/12 04:28:59;;;;;;;12.27;5.17;;;;;;;9.30;77.99;99723.31;5050196;28;20481;-79
2023/12/12 04:31:24;;;;;;;12.00;5.80;;;;;;;9.27;78.08;99718.03;5050235;28;20272;-80
2023/12/12 04:33:50;;;;;;;11.27;5.47;;;;;;;9.24;77.82;99720.69;5049924;28;20029;-81
2023/12/12 04:36:15;;;;;;;10.70;5.47;;;;;;;9.18;78.27;99713.75;5049936;28;20385;-80
2023/12/12 04:38:41;;;;;;;11.18;5.43;;;;;;;9.13;78.04;99705.91;5049963;28;20040;-80
2023/12/12 04:41:07;;;;;;;12.17;5.07;;;;;;;9.13;78.25;99699.75;5049916;28;20029;-80
2023/12/12 04:43:32;;;;;;;12.80;5.32;;;;;;;9.13;78.18;99703.28;5049772;28;20571;-80
2023/12/12 04:45:57;;;;;;;9.43;5.03;;;;;;;9.15;78.00;99701.50;5050455;28;20112;-82
2023/12/12 04:48:23;;;;;;;9.53;5.40;;;;;;;9.17;77.94;99706.75;5049974;28;20148;-82
2023/12/12 04:50:48;;;;;;;10.33;5.13;;;;;;;9.15;78.15;99704.13;5049822;28;20112;-79
2023/12/12 04:53:16;;;;;;;10.77;5.57;;;;;;;9.13;77.79;99695.41;5049696;28;20271;-82
2023/12/12 04:55:41;;;;;;;11.82;5.72;;;;;;;9.07;78.01;99700.69;5049617;28;20036;-79
2023/12/12 04:58:07;;;;;;;9.63;5.30;;;;;;;9.02;78.04;99694.59;5049452;28;20029;-79
2023/12/12 05:00:32;;;;;;;9.13;5.03;;;;;;;9.01;78.28;99698.97;5049417;28;20029;-80
2023/12/12 05:02:58;;;;;;;11.50;5.53;;;;;;;9.02;78.24;99692.84;5049469;28;20461;-82
2023/12/12 05:05:23;;;;;;;12.38;6.35;;;;;;;9.03;78.16;99688.44;5048271;28;20388;-81
2023/12/12 05:07:49;;;;;;;10.97;6.03;;;;;;;8.99;78.28;99686.72;5049819;28;20033;-78
2023/12/12 05:10:14;;;;;;;13.83;6.67;;;;;;;8.97;78.42;99683.25;5049654;28;20453;-79
2023/12/12 05:12:39;;;;;;;11.50;6.10;;;;;;;8.97;78.55;99692.00;5049447;28;20497;-78
2023/12/12 05:15:05;;;;;;;14.07;6.67;;;;;;;9.00;78.58;99701.59;5049381;28;20028;-79
2023/12/12 05:17:31;;;;;;;17.17;6.82;;;;;;;9.01;78.45;99705.97;5049492;28;20053;-83
2023/12/12 05:19:58;;;;;;;16.15;7.28;;;;;;;9.02;78.44;99702.47;5049359;28;20566;-79
2023/12/12 05:22:24;;;;;;;15.03;7.43;;;;;;;8.98;78.69;99695.50;5049257;28;20082;-79
2023/12/12 05:24:49;;;;;;;15.47;7.10;;;;;;;8.93;79.14;99694.66;5048513;28;20439;-79
2023/12/12 05:27:14;;;;;;;14.73;6.30;;;;;;;8.88;78.83;99703.44;5049543;28;20279;-80
2023/12/12 05:29:40;;;;;;;15.03;6.77;;;;;;;8.90;79.13;99706.94;5047944;28;20037;-79
2023/12/12 05:32:06;;;;;;;13.13;6.53;;;;;;;8.93;78.99;99708.69;5049458;28;20029;-80
2023/12/12 05:34:31;;;;;;;14.23;7.07;;;;;;;8.95;78.92;99709.53;5049331;28;20025;-81
2023/12/12 05:36:57;;;;;;;12.20;6.33;;;;;;;8.92;79.08;99704.28;5049569;28;20021;-81
2023/12/12 05:39:22;;;;;;;12.93;6.20;;;;;;;8.89;79.31;99710.44;5049053;28;20028;-81
2023/12/12 05:41:48;;;;;;;16.30;6.27;;;;;;;8.90;79.04;99706.94;5049327;28;20021;-80
2023/12/12 05:44:14;;;;;;;11.38;5.93;;;;;;;8.95;78.77;99724.41;5049063;28;20374;-82
2023/12/12 05:46:39;;;;;;;12.23;6.07;;;;;;;8.94;79.09;99714.78;5049291;28;20463;-79
2023/12/12 05:49:05;;;;;;;11.10;5.80;;;;;;;8.88;78.85;99706.06;5049520;28;20024;-79
2023/12/12 05:51:34;;;;;;;12.07;6.20;;;;;;;8.87;79.15;99720.09;5047917;28;20017;-80
2023/12/12 05:54:00;;;;;;;11.60;5.50;;;;;;;8.88;79.11;99711.31;5049241;28;20033;-80
2023/12/12 05:56:25;;;;;;;11.43;5.65;;;;;;;8.89;79.09;99713.06;5049170;28;20044;-80
2023/12/12 05:58:51;;;;;;;9.77;5.50;;;;;;;8.89;78.90;99699.03;5048520;28;20029;-79
2023/12/12 06:01:17;;;;;;;13.18;6.07;;;;;;;8.89;78.67;99706.91;5049045;28;20025;-79
2023/12/12 06:03:42;;;;;;;17.50;5.70;;;;;;;8.84;79.21;99712.22;5049143;28;20025;-80
2023/12/12 06:06:09;;;;;;;10.33;5.53;;;;;;;8.81;78.93;99708.72;5049294;28;20104;-80
2023/12/12 06:08:36;;;;;;;11.50;5.20;;;;;;;8.79;78.94;99711.34;5049056;28;20480;-80
2023/12/12 06:11:01;;;;;;;14.23;6.40;;;;;;;8.74;79.28;99708.78;5048921;28;20029;-80
2023/12/12 06:13:28;;;;;;;13.20;6.20;;;;;;;8.70;79.13;99711.41;5049685;28;20083;-79
2023/12/12 06:15:53;;;;;;;11.50;5.60;;;;;;;8.66;79.42;99709.69;5052789;28;20017;-81
2023/12/12 06:18:19;;;;;;;9.82;5.20;;;;;;;8.65;79.53;99708.81;5052113;28;20025;-79
2023/12/12 06:20:44;;;;;;;12.60;5.80;;;;;;;8.68;79.06;99711.44;5052739;28;20067;-80
2023/12/12 06:23:12;;;;;;;11.17;5.57;;;;;;;8.69;79.03;99707.06;5052623;28;20025;-80
2023/12/12 06:25:37;;;;;;;12.55;5.55;;;;;;;8.67;79.31;99706.19;5041406;28;20124;-81
2023/12/12 06:28:03;;;;;;;12.37;5.70;;;;;;;8.66;78.89;99709.69;5052514;28;20116;-82
2023/12/12 06:30:28;;;;;;;11.97;5.60;;;;;;;8.65;78.91;99702.69;5052348;28;20358;-79
2023/12/12 06:32:55;;;;;;;11.80;6.10;;;;;;;8.64;78.77;99727.22;5051021;28;20287;-82
2023/12/12 06:35:22;;;;;;;11.77;6.20;;;;;;;8.63;78.88;99720.22;5052056;28;20144;-79
2023/12/12 06:37:48;;;;;;;12.73;6.60;;;;;;;8.60;78.91;99721.09;5052144;28;20025;-79
2023/12/12 06:40:14;;;;;;;15.88;6.15;;;;;;;8.59;79.00;99714.97;5052129;28;20027;-81
2023/12/12 06:42:40;;;;;;;13.18;5.50;;;;;;;8.57;79.25;99722.00;5052146;28;20029;-82
2023/12/12 06:45:10;;;;;;;12.67;5.60;;;;;;;8.56;79.17;99724.63;5051910;28;20112;-79
2023/12/12 06:47:38;;;;;;;10.70;5.22;;;;;;;8.55;79.09;99728.97;5050507;28;20032;-80
2023/12/12 06:50:04;;;;;;;9.95;5.43;;;;;;;8.54;78.97;99727.22;5051053;28;20033;-79
2023/12/12 06:52:31;;;;;;;10.43;4.75;;;;;;;8.53;79.01;99725.50;5051771;28;20045;-85
2023/12/12 06:54:56;;;;;;;8.90;4.22;;;;;;;8.53;79.12;99714.13;5051823;28;20154;-80
2023/12/12 06:57:22;;;;;;;9.20;4.93;;;;;;;8.51;79.29;99705.41;5084033;28;20070;-81
2023/12/12 06:59:48;;;;;;;9.88;4.93;;;;;;;8.51;79.08;99711.50;5049330;28;20072;-85
2023/12/12 07:02:14;;;;;;;11.27;5.07;;;;;;;8.48;79.15;99711.47;5032002;28;20026;-81
2023/12/12 07:04:39;;;;;;;9.07;4.72;;;;;;;8.43;79.39;99708.88;5031885;28;20032;-83
2023/12/12 07:07:05;;;;;;;9.97;4.97;;;;;;;8.42;79.36;99706.28;5031884;28;20026;-82
2023/12/12 07:09:30;;;;;;;8.50;4.53;;;;;;;8.43;79.26;99711.50;5032558;28;20037;-80
2023/12/12 07:11:55;;;;;;;11.77;4.40;;;;;;;8.43;79.06;99719.38;5051557;28;20110;-82
2023/12/12 07:14:21;;;;;;;9.47;4.57;;;;;;;8.42;79.16;99714.16;5050363;28;20064;-79
2023/12/12 07:16:46;;;;;;;14.53;5.10;;;;;;;8.40;79.23;99718.53;5050988;28;20643;-79
2023/12/12 07:19:12;;;;;;;10.93;5.50;;;;;;;8.40;79.11;99718.53;5051411;28;20067;-79
2023/12/12 07:21:41;;;;;;;13.43;5.40;;;;;;;8.41;79.12;99717.66;5051367;28;20056;-79
2023/12/12 07:24:07;;;;;;;14.57;5.18;;;;;;;8.42;79.01;99716.78;5050212;28;20541;-83
2023/12/12 07:26:33;;;;;;;14.25;6.82;;;;;;;8.37;79.21;99713.31;5051147;28;20611;-79
2023/12/12 07:28:59;;;;;;;14.03;6.30;;;;;;;8.31;79.25;99712.41;5051233;28;20106;-79
2023/12/12 07:31:26;;;;;;;10.95;5.25;;;;;;;8.30;79.27;99712.44;5051393;28;20497;-78
2023/12/12 07:33:51;;;;;;;13.75;5.80;;;;;;;8.33;79.34;99712.44;5050825;28;20056;-82
2023/12/12 07:36:16;;;;;;;15.33;6.10;;;;;;;8.36;79.29;99708.94;5049871;28;20028;-79
2023/12/12 07:38:42;;;;;;;14.73;6.67;;;;;;;8.37;79.17;99708.91;5050240;28;20072;-81
2023/12/12 07:41:08;;;;;;;13.68;6.00;;;;;;;8.38;79.09;99699.31;5047322;28;20044;-81
2023/12/12 07:43:33;;;;;;;10.30;5.67;;;;;;;8.39;79.03;99706.28;5030426;28;20567;-82
2023/12/12 07:45:58;;;;;;;12.60;6.53;;;;;;;8.43;78.97;99705.41;5030841;28;20112;-80
2023/12/12 07:48:25;;;;;;;13.05;6.30;;;;;;;8.45;79.09;99706.25;5031034;28;20034;-79
2023/12/12 07:50:50;;;;;;;14.37;6.10;;;;;;;8.47;78.84;99699.25;5030979;28;20021;-78
2023/12/12 07:53:15;;;;;;;16.08;6.22;;;;;;;8.46;78.95;99694.88;5029889;28;20082;-78
2023/12/12 07:55:41;;;;;;;11.07;5.90;;;;;;;8.48;78.76;99701.88;5030702;28;20033;-82
2023/12/12 07:58:07;;;;;;;11.97;5.23;;;;;;;8.50;78.76;99701.88;5030613;28;20029;-81
2023/12/12 08:00:32;;;;;;;11.27;5.45;;;;;;;8.52;78.96;99702.75;5030786;28;20116;-78
2023/12/12 08:02:58;;;;;;;11.13;5.47;;;;;;;8.56;79.05;99709.75;5030699;28;20040;-79
2023/12/12 08:05:24;;;;;;;12.68;5.82;;;;;;;8.62;78.41;99703.56;5031136;28;20022;-79
2023/12/12 08:07:49;;;;;;;15.23;5.50;;;;;;;8.64;78.76;99704.44;5030780;28;20056;-82
2023/12/12 08:10:15;;;;;;;11.83;4.93;;;;;;;8.64;78.87;99703.59;5043333;28;20013;-78
2023/12/12 08:12:40;;;;;;;11.20;5.47;;;;;;;8.68;78.67;99707.94;5050452;28;20064;-78
2023/12/12 08:15:06;;;;;;;12.03;5.03;;;;;;;8.72;78.66;99714.91;5050382;28;20630;-78
2023/12/12 08:17:32;;;;;;;10.43;5.07;;;;;;;8.75;79.17;99707.00;5050131;28;20027;-78
2023/12/12 08:20:00;;;;;;;8.63;4.53;;;;;;;8.81;78.72;99711.34;5050133;28;20448;-80
2023/12/12 08:22:25;;;;;;;8.77;4.45;;;;;;;8.87;78.67;99712.19;5048373;28;20095;-79
2023/12/12 08:24:51;;;;;;;9.60;4.10;;;;;;;8.95;78.35;99721.78;5049117;28;20477;-81
2023/12/12 08:27:20;;;;;;;12.60;4.38;;;;;;;9.00;78.58;99705.13;5050550;28;20033;-83
2023/12/12 08:29:47;;;;;;;13.18;4.35;;;;;;;9.05;78.45;99715.59;5050123;28;20025;-79
2023/12/12 08:32:12;;;;;;;9.90;4.40;;;;;;;9.09;78.21;99725.19;5050075;28;20385;-82
2023/12/12 08:34:38;;;;;;;10.80;4.40;;;;;;;9.15;78.18;99726.88;5049907;28;20021;-82
2023/12/12 08:37:03;;;;;;;11.67;4.50;;;;;;;9.16;78.23;99721.63;5049117;28;20342;-82
2023/12/12 08:39:31;;;;;;;11.30;4.87;;;;;;;9.18;78.07;99719.88;5049968;28;20033;-83
2023/12/12 08:41:57;;;;;;;11.23;5.15;;;;;;;9.17;78.48;99723.38;5049864;28;20028;-82
2023/12/12 08:44:23;;;;;;;13.27;6.10;;;;;;;9.16;78.84;99728.63;5049915;28;20025;-80
2023/12/12 08:46:49;;;;;;;12.50;6.33;;;;;;;9.17;78.62;99731.25;5049967;28;20021;-80
2023/12/12 08:49:17;;;;;;;10.90;5.65;;;;;;;9.18;78.58;99735.63;5050075;28;20021;-78
2023/12/12 08:51:43;;;;;;;16.85;6.88;;;;;;;9.25;78.58;99732.94;5049761;28;20040;-78
2023/12/12 08:54:09;;;;;;;13.13;6.27;;;;;;;9.24;78.97;99731.22;5049822;28;20028;-79
2023/12/12 08:56:36;;;;;;;13.70;5.88;;;;;;;9.27;78.90;99725.94;5049649;28;20096;-79
2023/12/12 08:59:02;;;;;;;10.07;5.40;;;;;;;9.29;79.00;99721.56;5049382;28;20037;-79
2023/12/12 09:01:27;;;;;;;16.43;4.47;;;;;;;9.31;79.28;99719.78;5049796;28;20020;-80
2023/12/12 09:03:53;;;;;;;12.65;4.40;;;;;;;9.38;79.34;99731.09;5050133;28;20033;-80
2023/12/12 09:06:18;;;;;;;11.67;5.03;;;;;;;9.43;78.96;99730.19;5049239;28;20049;-81
2023/12/12 09:08:44;;;;;;;12.93;4.77;;;;;;;9.48;79.31;99727.53;5049591;28;20328;-80
2023/12/12 09:11:10;;;;;;;9.30;4.28;;;;;;;9.53;79.26;99735.38;5049561;28;20487;-79
2023/12/12 09:13:36;;;;;;;10.83;4.20;;;;;;;9.53;79.19;99735.38;5049299;28;20520;-81
2023/12/12 09:16:01;;;;;;;8.85;3.75;;;;;;;9.54;79.19;99731.88;5049347;28;20069;-78
2023/12/12 09:18:26;;;;;;;8.77;4.23;;;;;;;9.57;79.15;99737.09;5049394;28;20028;-78
2023/12/12 09:20:52;;;;;;;11.93;4.20;;;;;;;9.62;79.54;99735.31;5049431;28;20056;-80
2023/12/12 09:23:17;;;;;;;9.73;4.38;;;;;;;9.69;78.98;99736.13;5048123;28;20654;-81
2023/12/12 09:25:43;;;;;;;10.03;4.73;;;;;;;9.76;79.52;99741.28;5049042;28;20049;-78
2023/12/12 09:28:08;;;;;;;11.30;4.60;;;;;;;9.80;79.14;99734.25;5049643;28;20029;-80
2023/12/12 09:30:34;;;;;;;10.73;5.07;;;;;;;9.81;79.54;99729.88;5049284;28;20495;-79
2023/12/12 09:32:59;;;;;;;12.10;4.83;;;;;;;9.90;79.06;99740.28;5049248;28;20025;-78
2023/12/12 09:35:25;;;;;;;11.63;4.67;;;;;;;9.94;79.31;99728.84;5049031;28;20419;-82
2023/12/12 09:37:51;;;;;;;12.88;4.47;;;;;;;9.98;79.41;99732.34;5049164;28;20017;-81
2023/12/12 09:40:16;;;;;;;11.97;4.70;;;;;;;9.99;79.33;99726.19;5049208;28;20028;-80
2023/12/12 09:42:42;;;;;;;12.52;4.70;;;;;;;10.04;78.78;99724.38;5049246;28;20465;-78
2023/12/12 09:45:13;;;;;;;9.97;4.30;;;;;;;10.10;78.63;99736.59;5049275;28;20036;-78
2023/12/12 09:47:40;;;;;;;11.25;4.82;;;;;;;10.15;79.13;99724.25;5049619;28;20384;-79
2023/12/12 09:50:06;;;;;;;11.63;4.72;;;;;;;10.15;78.91;99711.09;5052804;28;20116;-79
2023/12/12 09:52:35;;;;;;;9.40;4.50;;;;;;;10.17;79.02;99718.09;5053010;28;20517;-82
2023/12/12 09:55:01;;;;;;;12.83;4.93;;;;;;;10.22;79.18;99704.88;5053163;28;20439;-79
2023/12/12 09:57:30;;;;;;;11.05;4.57;;;;;;;10.30;78.85;99708.31;5052828;28;20112;-81
2023/12/12 09:59:56;;;;;;;12.53;4.80;;;;;;;10.40;78.61;99703.84;5052733;28;20033;-78
2023/12/12 10:02:26;;;;;;;10.82;4.65;;;;;;;10.46;78.38;99708.13;5052634;28;20040;-78
2023/12/12 10:04:52;;;;;;;10.13;4.80;;;;;;;10.52;78.68;99702.81;5053017;28;20107;-77
2023/12/12 10:07:19;;;;;;;9.93;4.22;;;;;;;10.58;78.74;99705.34;5053010;28;20052;-79
2023/12/12 10:09:44;;;;;;;9.57;3.80;;;;;;;10.66;78.39;99705.25;5052702;28;20032;-78
2023/12/12 10:12:10;;;;;;;7.90;4.03;;;;;;;10.79;78.23;99702.44;5052861;28;20544;-81
2023/12/12 10:14:41;;;;;;;10.53;4.70;;;;;;;10.91;77.93;99711.03;5052574;28;20481;-78
2023/12/12 10:17:10;;;;;;;11.25;4.10;;;;;;;11.02;78.27;99696.84;5052470;28;20500;-81
2023/12/12 10:19:39;;;;;;;9.70;4.47;;;;;;;11.16;77.84;99708.03;5051292;28;20098;-78
2023/12/12 10:22:08;;;;;;;12.60;5.18;;;;;;;11.25;77.69;99704.38;5052555;28;20128;-78
2023/12/12 10:24:37;;;;;;;9.15;4.00;;;;;;;11.32;77.93;99699.91;5052321;28;20053;-79
2023/12/12 10:27:04;;;;;;;10.60;4.27;;;;;;;11.38;77.75;99688.38;5052487;28;20047;-78
2023/12/12 10:29:31;;;;;;;9.23;3.13;;;;;;;11.46;77.51;99686.47;5052283;28;20112;-79
2023/12/12 10:31:58;;;;;;;9.10;3.85;;;;;;;11.52;77.39;99701.34;5052523;28;20025;-78
2023/12/12 10:34:27;;;;;;;8.70;4.65;;;;;;;11.58;77.42;99707.38;5052310;28;20029;-79
2023/12/12 10:36:52;;;;;;;8.43;3.83;;;;;;;11.65;77.01;99700.19;5051037;28;20404;-81
2023/12/12 10:39:18;;;;;;;10.70;3.83;;;;;;;11.71;76.87;99704.50;5052195;28;20064;-80
2023/12/12 10:41:56;;;;;;;9.43;4.20;;;;;;;11.73;77.08;99716.78;5052222;28;20031;-81
2023/12/12 10:44:31;;;;;;;9.05;3.50;;;;;;;11.78;76.65;99706.13;5052553;28;20028;-78
2023/12/12 10:46:59;;;;;;;8.25;3.28;;;;;;;11.84;76.86;99718.34;5052426;28;20036;-79
2023/12/12 10:49:33;;;;;;;9.77;3.35;;;;;;;11.92;76.73;99724.34;5052152;28;20049;-78
2023/12/12 10:52:05;;;;;;;9.83;3.73;;;;;;;12.02;76.83;99754.09;5052506;28;20025;-79
2023/12/12 10:54:35;;;;;;;10.48;5.03;;;;;;;12.08;76.75;99747.84;5051899;28;20029;-80
2023/12/12 10:57:02;;;;;;;11.93;5.20;;;;;;;12.12;76.61;99731.94;5051927;28;20608;-81
2023/12/12 10:59:29;;;;;;;11.98;5.30;;;;;;;12.17;77.01;99727.44;5050800;28;20033;-78
2023/12/12 11:01:56;;;;;;;11.10;4.93;;;;;;;12.23;77.02;99731.72;5051789;28;20043;-79
2023/12/12 11:04:24;;;;;;;9.60;4.17;;;;;;;12.32;76.90;99734.19;5051889;28;20378;-78
2023/12/12 11:06:51;;;;;;;10.75;4.32;;;;;;;12.51;76.85;99731.19;5052312;28;20037;-79
2023/12/12 11:09:16;;;;;;;13.63;4.00;;;;;;;12.66;76.51;99723.81;5051621;28;20489;-79
2023/12/12 11:11:44;;;;;;;9.47;4.63;;;;;;;12.78;76.42;99723.56;5051927;28;20025;-80
2023/12/12 11:14:10;;;;;;;9.45;3.90;;;;;;;12.88;76.06;99703.94;5051654;28;20404;-81
2023/12/12 11:16:36;;;;;;;10.82;4.43;;;;;;;12.91;76.06;99705.66;5051652;28;20425;-82
2023/12/12 11:19:02;;;;;;;11.63;4.80;;;;;;;12.95;75.95;99695.91;5051353;28;20298;-80
2023/12/12 11:21:48;;;;;;;10.07;4.33;;;;;;;13.01;75.82;99690.47;5051552;28;20268;-80
2023/12/12 11:24:15;;;;;;;8.77;4.47;;;;;;;13.10;76.04;99687.59;5051075;28;20016;-80
2023/12/12 11:26:43;;;;;;;10.07;4.05;;;;;;;13.24;75.93;99692.53;5051215;28;20045;-80